Time;durP1;ratioP1;P1;durP2;ratioP2;P2;SDS_P1;SDS_P2;PMS_P1;PMS_P2;Temp;Humidity;BMP_temperature;BMP_pressure;BME280_temperature;BME280_humidity;BME280_pressure;Samples;Min_cycle;Max_cycle;Signal;HPM_P1;HPM_P2
2022/11/27 00:00:31;;;;;;;9.63;6.10;;;7.90;96.10;;;;;;5082201;28;20456;-69
2022/11/27 00:02:58;;;;;;;14.10;6.83;;;7.80;96.20;;;;;;5082263;28;20892;-70
2022/11/27 00:05:26;;;;;;;8.13;5.37;;;7.80;96.30;;;;;;5082761;28;20443;-69
2022/11/27 00:07:53;;;;;;;11.33;6.30;;;7.80;96.30;;;;;;5083468;28;20461;-69
2022/11/27 00:10:20;;;;;;;7.43;5.73;;;7.80;96.30;;;;;;5082138;28;20429;-69
2022/11/27 00:12:46;;;;;;;12.37;6.33;;;7.80;96.40;;;;;;5082752;28;20461;-70
2022/11/27 00:15:14;;;;;;;12.50;5.70;;;7.80;96.40;;;;;;5083176;28;20460;-69
2022/11/27 00:17:41;;;;;;;9.80;5.37;;;7.80;96.50;;;;;;5083539;28;20464;-69
2022/11/27 00:20:08;;;;;;;11.37;5.30;;;7.80;96.50;;;;;;5083172;28;20452;-69
2022/11/27 00:22:37;;;;;;;14.03;6.30;;;7.80;96.60;;;;;;5082973;28;20473;-70
2022/11/27 00:25:04;;;;;;;15.20;6.10;;;7.80;96.60;;;;;;5083320;28;20460;-69
2022/11/27 00:27:31;;;;;;;11.17;7.00;;;7.80;96.60;;;;;;5083503;28;20464;-70
2022/11/27 00:30:01;;;;;;;11.13;6.57;;;7.80;96.60;;;;;;5083720;28;20799;-68
2022/11/27 00:32:27;;;;;;;10.43;6.03;;;7.80;96.60;;;;;;5083625;28;20469;-69
2022/11/27 00:34:54;;;;;;;9.70;4.97;;;7.80;96.60;;;;;;5083922;28;20444;-69
2022/11/27 00:37:21;;;;;;;12.93;5.53;;;7.80;96.60;;;;;;5083963;28;20486;-67
2022/11/27 00:39:50;;;;;;;9.07;5.00;;;7.80;96.60;;;;;;5083842;28;20445;-68
2022/11/27 00:42:17;;;;;;;11.37;6.10;;;7.80;96.60;;;;;;5082761;28;20467;-68
2022/11/27 00:44:43;;;;;;;11.60;5.70;;;7.80;96.50;;;;;;5082585;28;20452;-68
2022/11/27 00:47:10;;;;;;;11.83;5.07;;;7.70;96.50;;;;;;5082561;28;20479;-68
2022/11/27 00:49:37;;;;;;;13.87;5.40;;;7.70;96.50;;;;;;5083266;28;20432;-67
2022/11/27 00:52:04;;;;;;;12.67;5.13;;;7.70;96.70;;;;;;5082308;28;20455;-67
2022/11/27 00:54:31;;;;;;;14.80;4.47;;;7.70;96.60;;;;;;5082075;28;20445;-68
2022/11/27 00:57:00;;;;;;;11.10;4.93;;;7.80;96.70;;;;;;5083040;28;20450;-68
2022/11/27 00:59:27;;;;;;;9.40;4.73;;;7.80;96.50;;;;;;5082920;28;20458;-68
2022/11/27 01:01:54;;;;;;;7.50;4.60;;;7.70;96.40;;;;;;5082989;28;20452;-68
2022/11/27 01:04:21;;;;;;;9.10;4.30;;;7.80;96.50;;;;;;5083327;28;20533;-67
2022/11/27 01:06:48;;;;;;;12.90;6.67;;;7.70;96.50;;;;;;5082486;28;20484;-67
2022/11/27 01:09:16;;;;;;;16.73;6.53;;;7.70;96.60;;;;;;5082719;28;20430;-68
2022/11/27 01:11:43;;;;;;;9.50;5.00;;;7.70;96.70;;;;;;5084154;28;20456;-68
2022/11/27 01:14:14;;;;;;;12.60;5.60;;;7.70;96.70;;;;;;5083565;28;20836;-68
2022/11/27 01:16:41;;;;;;;10.20;4.70;;;7.70;96.70;;;;;;5083858;28;20452;-68
2022/11/27 01:19:10;;;;;;;11.47;5.10;;;7.70;96.70;;;;;;5083126;28;20434;-68
2022/11/27 01:21:37;;;;;;;10.30;4.30;;;7.80;96.80;;;;;;5081106;28;20559;-68
2022/11/27 01:24:05;;;;;;;8.30;5.07;;;7.80;96.80;;;;;;5081957;28;20469;-68
2022/11/27 01:26:32;;;;;;;7.03;4.17;;;7.80;96.80;;;;;;5080298;28;20488;-68
2022/11/27 01:28:59;;;;;;;11.40;4.50;;;7.70;96.70;;;;;;5079139;28;20449;-68
2022/11/27 01:31:29;;;;;;;11.07;4.53;;;7.80;96.80;;;;;;5076397;28;20445;-68
2022/11/27 01:33:58;;;;;;;16.07;4.10;;;7.80;96.80;;;;;;5079356;28;20469;-68
2022/11/27 01:36:25;;;;;;;6.80;4.07;;;7.80;96.80;;;;;;5081014;28;20462;-67
2022/11/27 01:38:52;;;;;;;7.90;3.53;;;7.70;96.80;;;;;;5081170;28;20433;-67
2022/11/27 01:41:21;;;;;;;6.23;3.20;;;7.70;97.00;;;;;;5082939;28;20438;-67
2022/11/27 01:43:50;;;;;;;8.60;4.97;;;7.70;97.10;;;;;;5080969;28;20507;-67
2022/11/27 01:46:31;;;;;;;8.93;4.10;;;7.70;97.20;;;;;;5082946;28;20463;-67
2022/11/27 01:49:05;;;;;;;9.50;4.13;;;7.70;97.30;;;;;;5082855;28;20432;-67
2022/11/27 01:51:32;;;;;;;11.93;3.93;;;7.70;97.20;;;;;;5084049;28;20452;-67
2022/11/27 01:53:59;;;;;;;14.60;5.00;;;7.70;97.20;;;;;;5081699;28;20885;-67
2022/11/27 01:56:28;;;;;;;13.87;5.43;;;7.70;97.10;;;;;;5081682;28;20447;-67
2022/11/27 01:58:56;;;;;;;10.83;4.70;;;7.70;97.10;;;;;;5082978;28;20453;-67
2022/11/27 02:01:24;;;;;;;8.90;4.50;;;7.60;97.10;;;;;;5083965;28;20450;-67
2022/11/27 02:03:53;;;;;;;6.80;4.70;;;7.60;97.20;;;;;;5083184;28;20567;-67
2022/11/27 02:06:20;;;;;;;10.80;4.50;;;7.60;97.20;;;;;;5083104;28;20463;-67
2022/11/27 02:08:46;;;;;;;5.87;3.90;;;7.50;97.30;;;;;;5083090;28;20539;-67
2022/11/27 02:11:22;;;;;;;7.37;4.33;;;7.60;97.50;;;;;;5083647;28;20463;-67
2022/11/27 02:13:55;;;;;;;11.27;4.93;;;7.50;97.40;;;;;;5082644;28;20486;-67
2022/11/27 02:16:28;;;;;;;12.93;5.43;;;7.50;97.50;;;;;;5083073;28;20976;-67
2022/11/27 02:19:04;;;;;;;10.00;5.10;;;7.50;97.50;;;;;;5080995;28;20440;-66
2022/11/27 02:21:39;;;;;;;10.63;4.83;;;7.50;97.60;;;;;;5081853;28;20440;-67
2022/11/27 02:24:37;;;;;;;10.60;4.87;;;7.50;97.50;;;;;;5082038;28;20467;-67
2022/11/27 02:27:27;;;;;;;7.60;4.80;;;7.50;97.50;;;;;;5082947;28;20575;-67
2022/11/27 02:30:02;;;;;;;8.73;4.87;;;7.40;97.50;;;;;;5081720;28;20460;-67
2022/11/27 02:32:35;;;;;;;13.17;4.60;;;7.40;97.50;;;;;;5081532;28;20603;-67
2022/11/27 02:35:06;;;;;;;7.80;4.70;;;7.40;97.50;;;;;;5082647;28;20467;-67
2022/11/27 02:37:38;;;;;;;9.20;5.10;;;7.40;97.50;;;;;;5082164;28;20456;-67
2022/11/27 02:40:09;;;;;;;12.47;5.03;;;7.40;97.50;;;;;;5083011;28;20449;-67
2022/11/27 02:42:39;;;;;;;8.47;5.40;;;7.40;97.50;;;;;;5083000;28;20494;-67
2022/11/27 02:45:12;;;;;;;9.10;4.47;;;7.40;97.50;;;;;;5082021;28;20427;-67
2022/11/27 02:47:40;;;;;;;9.23;5.10;;;7.40;97.40;;;;;;5081982;28;20574;-68
2022/11/27 02:50:12;;;;;;;10.03;4.63;;;7.40;97.50;;;;;;5082008;28;20459;-68
2022/11/27 02:52:40;;;;;;;7.10;4.50;;;7.40;97.40;;;;;;5082745;28;20476;-67
2022/11/27 02:55:11;;;;;;;11.57;5.00;;;7.40;97.40;;;;;;5082192;28;20539;-68
2022/11/27 02:57:40;;;;;;;14.90;5.07;;;7.40;97.50;;;;;;5082567;28;20438;-67
2022/11/27 03:00:10;;;;;;;6.53;4.07;;;7.40;97.60;;;;;;5082779;28;20451;-67
2022/11/27 03:02:44;;;;;;;5.60;4.07;;;7.40;97.70;;;;;;5082559;28;20516;-67
2022/11/27 03:05:17;;;;;;;7.60;4.40;;;7.40;97.70;;;;;;5082456;28;20442;-68
2022/11/27 03:07:48;;;;;;;14.47;6.00;;;7.40;97.70;;;;;;5081213;28;21044;-67
2022/11/27 03:10:19;;;;;;;11.70;4.90;;;7.40;97.70;;;;;;5081184;28;20448;-68
2022/11/27 03:12:46;;;;;;;12.20;4.80;;;7.40;97.70;;;;;;5081683;28;21048;-67
2022/11/27 03:15:15;;;;;;;8.93;4.80;;;7.40;97.50;;;;;;5081927;28;20445;-67
2022/11/27 03:17:52;;;;;;;8.73;5.80;;;7.40;97.30;;;;;;5081401;28;20432;-67
2022/11/27 03:20:24;;;;;;;8.00;5.10;;;7.40;97.40;;;;;;5082568;28;20776;-67
2022/11/27 03:22:53;;;;;;;10.77;6.00;;;7.40;97.40;;;;;;5083087;28;20467;-68
2022/11/27 03:25:22;;;;;;;12.90;5.80;;;7.40;97.40;;;;;;5082194;28;20833;-68
2022/11/27 03:27:53;;;;;;;8.67;5.27;;;7.40;97.40;;;;;;5081367;28;20860;-68
2022/11/27 03:30:22;;;;;;;16.60;5.93;;;7.30;97.40;;;;;;5081280;28;20453;-68
2022/11/27 03:32:48;;;;;;;12.63;5.50;;;7.30;97.50;;;;;;5081499;28;20471;-67
2022/11/27 03:35:19;;;;;;;11.90;5.43;;;7.30;97.60;;;;;;5081442;28;20445;-67
2022/11/27 03:37:46;;;;;;;9.77;5.37;;;7.30;97.60;;;;;;5081992;28;20460;-67
2022/11/27 03:40:16;;;;;;;11.00;5.37;;;7.30;97.60;;;;;;5082466;28;20543;-67
2022/11/27 03:42:54;;;;;;;14.93;6.60;;;7.20;97.70;;;;;;5081752;28;20479;-67
2022/11/27 03:45:32;;;;;;;12.70;5.73;;;7.20;97.80;;;;;;5081406;28;20436;-67
2022/11/27 03:48:13;;;;;;;8.93;5.83;;;7.20;98.00;;;;;;5082573;28;20474;-67
2022/11/27 03:50:51;;;;;;;9.00;5.80;;;7.20;98.00;;;;;;5081199;28;20441;-67
2022/11/27 03:53:24;;;;;;;9.93;6.20;;;7.20;98.10;;;;;;5082198;28;20461;-67
2022/11/27 03:55:59;;;;;;;12.37;6.00;;;7.20;98.10;;;;;;5081422;28;20435;-67
2022/11/27 03:58:33;;;;;;;12.90;6.60;;;7.30;98.20;;;;;;5082191;28;20432;-67
2022/11/27 04:01:03;;;;;;;16.17;6.53;;;7.30;98.00;;;;;;5081379;28;20422;-67
2022/11/27 04:03:30;;;;;;;11.30;6.50;;;7.30;97.90;;;;;;5080982;28;20473;-67
2022/11/27 04:06:00;;;;;;;12.07;7.00;;;7.30;98.00;;;;;;5080820;28;20459;-67
2022/11/27 04:08:26;;;;;;;11.50;6.37;;;7.30;98.10;;;;;;5080165;28;20492;-67
2022/11/27 04:10:53;;;;;;;11.07;6.97;;;7.30;98.10;;;;;;5081039;28;20450;-67
2022/11/27 04:13:20;;;;;;;14.00;7.57;;;7.20;98.10;;;;;;5081186;28;20476;-67
2022/11/27 04:15:47;;;;;;;12.47;7.10;;;7.30;98.20;;;;;;5081719;28;20466;-67
2022/11/27 04:18:15;;;;;;;12.40;7.73;;;7.30;98.00;;;;;;5081536;28;20446;-67
2022/11/27 04:20:42;;;;;;;13.57;7.83;;;7.30;98.00;;;;;;5078147;28;20455;-71
2022/11/27 04:23:09;;;;;;;13.30;7.40;;;7.30;98.10;;;;;;5074326;28;20466;-71
2022/11/27 04:25:36;;;;;;;18.13;8.20;;;7.40;98.10;;;;;;5074151;28;21008;-71
2022/11/27 04:28:02;;;;;;;18.50;8.63;;;7.40;98.00;;;;;;5074454;28;20480;-71
2022/11/27 04:30:29;;;;;;;18.83;8.60;;;7.40;97.90;;;;;;5077432;28;20448;-71
2022/11/27 04:32:56;;;;;;;14.40;7.53;;;7.40;97.80;;;;;;5075922;28;21021;-71
2022/11/27 04:35:24;;;;;;;18.67;8.77;;;7.40;97.90;;;;;;5077548;28;20450;-71
2022/11/27 04:37:51;;;;;;;16.53;8.07;;;7.40;97.90;;;;;;5078642;28;20856;-73
2022/11/27 04:40:18;;;;;;;11.40;7.70;;;7.40;98.00;;;;;;5077823;28;20449;-72
2022/11/27 04:42:45;;;;;;;14.67;8.23;;;7.40;98.00;;;;;;5078047;28;20476;-72
2022/11/27 04:45:11;;;;;;;12.70;8.20;;;7.50;98.10;;;;;;5077558;28;20468;-72
2022/11/27 04:47:38;;;;;;;18.00;9.10;;;7.50;97.90;;;;;;5078008;28;20597;-71
2022/11/27 04:50:06;;;;;;;16.03;9.27;;;7.50;97.90;;;;;;5078491;28;20433;-74
2022/11/27 04:52:34;;;;;;;12.70;8.17;;;7.50;97.80;;;;;;5078018;28;20471;-72
2022/11/27 04:55:01;;;;;;;14.63;7.80;;;7.50;97.60;;;;;;5078640;28;20491;-72
2022/11/27 04:57:28;;;;;;;16.20;8.70;;;7.60;97.60;;;;;;5078012;28;20862;-72
2022/11/27 04:59:55;;;;;;;16.10;8.43;;;7.60;97.50;;;;;;5077675;28;20434;-71
2022/11/27 05:02:21;;;;;;;15.43;8.60;;;7.60;97.50;;;;;;5077695;28;20471;-71
2022/11/27 05:04:48;;;;;;;19.13;9.27;;;7.60;97.60;;;;;;5078259;28;20456;-72
2022/11/27 05:07:15;;;;;;;19.53;8.30;;;7.60;97.50;;;;;;5077954;28;20453;-72
2022/11/27 05:09:43;;;;;;;16.00;8.30;;;7.60;97.50;;;;;;5078462;28;20455;-73
2022/11/27 05:12:10;;;;;;;18.13;10.00;;;7.70;97.50;;;;;;5078590;28;20551;-71
2022/11/27 05:14:37;;;;;;;18.37;9.63;;;7.70;97.80;;;;;;5078023;28;20807;-72
2022/11/27 05:17:04;;;;;;;17.20;8.10;;;7.70;97.70;;;;;;5077135;28;20449;-73
2022/11/27 05:19:32;;;;;;;22.10;8.83;;;7.70;97.20;;;;;;5078609;28;20809;-72
2022/11/27 05:21:59;;;;;;;16.33;9.30;;;7.70;97.30;;;;;;5076399;28;20912;-71
2022/11/27 05:24:27;;;;;;;15.33;8.67;;;7.70;97.60;;;;;;5077669;28;20508;-72
2022/11/27 05:26:56;;;;;;;11.90;7.90;;;7.70;97.30;;;;;;5077391;28;20438;-72
2022/11/27 05:29:23;;;;;;;13.30;7.17;;;7.70;97.20;;;;;;5077528;28;20494;-74
2022/11/27 05:31:51;;;;;;;11.40;7.77;;;7.70;97.00;;;;;;5077574;28;20473;-74
2022/11/27 05:34:17;;;;;;;14.67;8.50;;;7.70;96.80;;;;;;5076437;28;20920;-73
2022/11/27 05:36:44;;;;;;;13.67;8.50;;;7.70;96.90;;;;;;5076479;28;20463;-73
2022/11/27 05:39:12;;;;;;;12.07;8.00;;;7.70;97.00;;;;;;5076632;28;20438;-71
2022/11/27 05:41:41;;;;;;;17.93;8.70;;;7.60;97.00;;;;;;5077331;28;20436;-72
2022/11/27 05:44:12;;;;;;;15.13;8.47;;;7.60;97.10;;;;;;5076730;28;20469;-72
2022/11/27 05:46:39;;;;;;;11.80;7.37;;;7.60;97.00;;;;;;5077556;28;20429;-73
2022/11/27 05:49:06;;;;;;;15.03;8.97;;;7.60;97.30;;;;;;5077530;28;20484;-73
2022/11/27 05:51:36;;;;;;;11.70;8.87;;;7.60;97.10;;;;;;5076916;28;20448;-72
2022/11/27 05:54:03;;;;;;;16.80;8.73;;;7.60;97.10;;;;;;5077193;28;20464;-72
2022/11/27 05:56:30;;;;;;;14.50;8.03;;;7.60;97.10;;;;;;5076932;28;20476;-72
2022/11/27 05:58:56;;;;;;;17.33;9.10;;;7.60;97.10;;;;;;5077360;28;20421;-73
2022/11/27 06:01:25;;;;;;;12.50;7.93;;;7.60;97.00;;;;;;5076772;28;20453;-73
2022/11/27 06:03:51;;;;;;;16.17;8.73;;;7.60;97.00;;;;;;5076972;28;20473;-73
2022/11/27 06:06:20;;;;;;;15.27;8.00;;;7.60;96.90;;;;;;5076697;28;20445;-72
2022/11/27 06:08:47;;;;;;;16.00;7.80;;;7.60;96.70;;;;;;5076880;28;20498;-72
2022/11/27 06:11:17;;;;;;;12.50;7.93;;;7.60;96.80;;;;;;5076240;28;20446;-72
2022/11/27 06:13:44;;;;;;;20.53;7.80;;;7.60;96.90;;;;;;5075844;28;20461;-72
2022/11/27 06:16:14;;;;;;;14.53;8.70;;;7.60;97.00;;;;;;5075394;28;20454;-72
2022/11/27 06:18:43;;;;;;;12.07;7.77;;;7.60;96.90;;;;;;5075491;28;20436;-73
2022/11/27 06:21:12;;;;;;;13.20;8.40;;;7.60;96.70;;;;;;5075901;28;20448;-73
2022/11/27 06:23:40;;;;;;;12.77;8.93;;;7.60;96.70;;;;;;5075980;28;20464;-72
2022/11/27 06:26:11;;;;;;;11.93;7.53;;;7.60;96.70;;;;;;5076715;28;20454;-72
2022/11/27 06:28:39;;;;;;;12.07;7.47;;;7.50;96.60;;;;;;5075512;28;20480;-73
2022/11/27 06:31:07;;;;;;;11.47;8.57;;;7.50;96.60;;;;;;5075522;28;20453;-72
2022/11/27 06:33:34;;;;;;;10.13;7.10;;;7.50;96.70;;;;;;5075021;28;20469;-74
2022/11/27 06:36:04;;;;;;;12.77;9.57;;;7.50;96.70;;;;;;5076253;28;20612;-74
2022/11/27 06:38:32;;;;;;;15.60;7.53;;;7.50;96.80;;;;;;5076341;28;20471;-74
2022/11/27 06:41:03;;;;;;;10.27;6.80;;;7.50;96.80;;;;;;5075904;28;20961;-73
2022/11/27 06:43:30;;;;;;;13.50;8.00;;;7.50;96.90;;;;;;5075613;28;20892;-72
2022/11/27 06:45:57;;;;;;;10.50;7.33;;;7.50;97.00;;;;;;5075567;28;20451;-73
2022/11/27 06:48:24;;;;;;;14.00;7.63;;;7.50;97.10;;;;;;5075178;28;20495;-73
2022/11/27 06:50:51;;;;;;;13.33;7.57;;;7.50;97.20;;;;;;5074683;28;20456;-72
2022/11/27 06:53:19;;;;;;;11.70;8.40;;;7.50;97.20;;;;;;5074450;28;20469;-73
2022/11/27 06:55:46;;;;;;;13.30;8.83;;;7.50;97.20;;;;;;5074558;28;21006;-73
2022/11/27 06:58:12;;;;;;;12.00;7.77;;;7.60;97.20;;;;;;5075258;28;20447;-73
2022/11/27 07:00:39;;;;;;;8.53;6.90;;;7.60;97.10;;;;;;5076198;28;20428;-73
2022/11/27 07:03:06;;;;;;;17.37;8.17;;;7.60;97.10;;;;;;5077355;28;20460;-73
2022/11/27 07:05:34;;;;;;;15.80;7.90;;;7.60;97.10;;;;;;5076436;28;20445;-73
2022/11/27 07:08:00;;;;;;;8.23;7.10;;;7.60;96.90;;;;;;5077334;28;20436;-73
2022/11/27 07:10:32;;;;;;;12.33;6.77;;;7.60;97.00;;;;;;5077883;28;20825;-73
2022/11/27 07:12:59;;;;;;;11.27;7.20;;;7.60;97.00;;;;;;5078678;28;20475;-73
2022/11/27 07:15:28;;;;;;;9.70;8.10;;;7.60;97.00;;;;;;5078700;28;20452;-73
2022/11/27 07:17:54;;;;;;;11.73;7.57;;;7.60;97.00;;;;;;5078063;28;20435;-73
2022/11/27 07:20:21;;;;;;;11.87;7.73;;;7.70;97.10;;;;;;5078133;28;20456;-72
2022/11/27 07:22:48;;;;;;;11.50;7.13;;;7.60;97.10;;;;;;5076513;28;20469;-73
2022/11/27 07:25:15;;;;;;;12.97;6.63;;;7.70;97.20;;;;;;5076648;28;20523;-73
2022/11/27 07:27:43;;;;;;;11.70;7.40;;;7.70;97.20;;;;;;5076760;28;20441;-73
2022/11/27 07:30:11;;;;;;;12.30;7.20;;;7.70;97.10;;;;;;5076194;28;20481;-73
2022/11/27 07:32:37;;;;;;;12.47;7.50;;;7.80;97.10;;;;;;5074674;28;20465;-74
2022/11/27 07:35:06;;;;;;;8.70;6.13;;;7.80;97.00;;;;;;5073651;28;20947;-74
2022/11/27 07:37:33;;;;;;;14.70;7.53;;;7.80;97.00;;;;;;5075941;28;20469;-73
2022/11/27 07:40:00;;;;;;;9.57;5.83;;;7.80;96.90;;;;;;5077030;28;20449;-73
2022/11/27 07:42:28;;;;;;;12.53;7.50;;;7.90;96.90;;;;;;5075974;28;20468;-73
2022/11/27 07:44:56;;;;;;;9.93;7.90;;;7.90;96.80;;;;;;5075899;28;20445;-73
2022/11/27 07:47:23;;;;;;;11.40;7.60;;;7.90;96.80;;;;;;5075764;28;20822;-73
2022/11/27 07:49:49;;;;;;;9.73;6.60;;;8.00;96.70;;;;;;5075327;28;20503;-74
2022/11/27 07:52:16;;;;;;;10.03;6.37;;;8.00;96.70;;;;;;5075051;28;21010;-74
2022/11/27 07:54:43;;;;;;;8.80;6.83;;;8.00;97.00;;;;;;5075197;28;20532;-74
2022/11/27 07:57:10;;;;;;;10.00;6.30;;;8.00;96.70;;;;;;5074981;28;20450;-74
2022/11/27 07:59:36;;;;;;;9.40;6.30;;;8.10;96.50;;;;;;5073494;28;20433;-73
2022/11/27 08:02:05;;;;;;;9.83;6.90;;;8.10;96.30;;;;;;5074222;28;20457;-73
2022/11/27 08:04:32;;;;;;;11.03;7.23;;;8.10;96.30;;;;;;5077414;28;20450;-73
2022/11/27 08:06:59;;;;;;;9.10;7.03;;;8.20;96.20;;;;;;5079150;28;20445;-73
2022/11/27 08:09:26;;;;;;;14.03;6.37;;;8.20;96.10;;;;;;5078546;28;20469;-73
2022/11/27 08:11:53;;;;;;;6.20;5.57;;;8.30;96.10;;;;;;5078491;28;20937;-73
2022/11/27 08:14:19;;;;;;;8.93;6.10;;;8.40;96.10;;;;;;5078663;28;20450;-73
2022/11/27 08:16:46;;;;;;;11.57;6.30;;;8.50;95.80;;;;;;5078974;28;20450;-73
2022/11/27 08:19:14;;;;;;;10.57;6.10;;;8.60;95.80;;;;;;5078079;28;20441;-73
2022/11/27 08:21:41;;;;;;;13.13;5.60;;;8.70;95.60;;;;;;5078788;28;20446;-74
2022/11/27 08:24:08;;;;;;;8.60;5.40;;;8.80;95.60;;;;;;5077600;28;20501;-74
2022/11/27 08:26:35;;;;;;;6.20;5.57;;;8.80;95.40;;;;;;5078214;28;20482;-74
2022/11/27 08:29:02;;;;;;;8.17;5.50;;;8.90;95.30;;;;;;5077561;28;20477;-75
2022/11/27 08:31:29;;;;;;;10.03;6.00;;;8.90;95.10;;;;;;5078276;28;20453;-74
2022/11/27 08:33:56;;;;;;;13.33;6.93;;;9.00;95.10;;;;;;5078729;28;20471;-74
2022/11/27 08:36:26;;;;;;;8.63;5.27;;;9.00;95.10;;;;;;5077622;28;20453;-73
2022/11/27 08:38:53;;;;;;;6.57;5.27;;;9.10;94.90;;;;;;5077247;28;20444;-73
2022/11/27 08:41:21;;;;;;;7.67;4.63;;;9.10;94.80;;;;;;5077301;28;20488;-73
2022/11/27 08:43:48;;;;;;;10.87;5.53;;;9.20;94.80;;;;;;5076569;28;20468;-74
2022/11/27 08:46:15;;;;;;;10.03;4.97;;;9.20;94.70;;;;;;5077205;28;20444;-74
2022/11/27 08:48:42;;;;;;;8.30;5.37;;;9.20;94.70;;;;;;5076944;28;20494;-74
2022/11/27 08:51:11;;;;;;;9.73;6.20;;;9.20;94.60;;;;;;5076909;28;20500;-74
2022/11/27 08:53:39;;;;;;;9.10;5.87;;;9.30;94.60;;;;;;5077603;28;20467;-74
2022/11/27 08:56:07;;;;;;;9.70;5.20;;;9.30;94.60;;;;;;5075983;28;20446;-75
2022/11/27 08:58:33;;;;;;;5.27;4.53;;;9.30;94.50;;;;;;5075781;28;20451;-74
2022/11/27 09:01:07;;;;;;;11.53;4.73;;;9.40;94.50;;;;;;5076741;28;20545;-74
2022/11/27 09:03:34;;;;;;;7.30;5.53;;;9.40;94.40;;;;;;5076436;28;20463;-74
2022/11/27 09:06:01;;;;;;;7.27;5.37;;;9.40;94.10;;;;;;5076532;28;20463;-74
2022/11/27 09:08:28;;;;;;;6.30;5.00;;;9.50;93.90;;;;;;5077573;28;20448;-75
2022/11/27 09:10:59;;;;;;;6.60;4.90;;;9.50;93.70;;;;;;5076706;28;20454;-75
2022/11/27 09:13:26;;;;;;;10.73;5.57;;;9.50;93.40;;;;;;5075905;28;20478;-75
2022/11/27 09:15:53;;;;;;;5.43;4.37;;;9.60;93.20;;;;;;5074540;28;20452;-75
2022/11/27 09:18:19;;;;;;;12.00;5.07;;;9.60;93.10;;;;;;5075788;28;20452;-75
2022/11/27 09:20:55;;;;;;;8.30;4.80;;;9.70;93.20;;;;;;5076190;28;20448;-76
2022/11/27 09:23:22;;;;;;;5.20;4.33;;;9.70;93.00;;;;;;5075756;28;20468;-75
2022/11/27 09:25:48;;;;;;;7.10;4.87;;;9.80;92.60;;;;;;5075880;28;20458;-75
2022/11/27 09:28:17;;;;;;;5.30;4.20;;;9.80;92.60;;;;;;5075615;28;20478;-77
2022/11/27 09:30:43;;;;;;;6.27;5.10;;;9.90;92.20;;;;;;5075209;28;20486;-75
2022/11/27 09:33:10;;;;;;;8.47;4.80;;;9.90;92.10;;;;;;5075060;28;20468;-76
2022/11/27 09:35:37;;;;;;;7.53;4.43;;;9.80;92.10;;;;;;5074672;28;20455;-75
2022/11/27 09:38:04;;;;;;;6.53;5.00;;;9.80;92.30;;;;;;5074735;28;20807;-74
2022/11/27 09:40:31;;;;;;;7.10;5.20;;;9.80;92.20;;;;;;5076789;28;20445;-76
2022/11/27 09:43:05;;;;;;;6.27;4.83;;;9.70;92.10;;;;;;5074398;28;20470;-75
2022/11/27 09:45:34;;;;;;;7.30;5.00;;;9.70;92.30;;;;;;5074168;28;20432;-74
2022/11/27 09:48:05;;;;;;;6.00;4.30;;;9.60;92.50;;;;;;5074685;28;20874;-74
2022/11/27 09:50:36;;;;;;;9.40;4.87;;;9.60;92.80;;;;;;5075929;28;20471;-70
2022/11/27 09:53:12;;;;;;;7.07;4.60;;;9.70;93.20;;;;;;5075309;28;20557;-73
2022/11/27 09:55:43;;;;;;;7.83;5.23;;;9.70;92.90;;;;;;5075277;28;20918;-73
2022/11/27 09:58:16;;;;;;;9.53;5.30;;;9.70;92.90;;;;;;5074988;28;20931;-74
2022/11/27 10:00:45;;;;;;;8.20;5.60;;;9.70;92.90;;;;;;5075425;28;20431;-73
2022/11/27 10:03:13;;;;;;;7.93;5.20;;;9.70;93.00;;;;;;5075229;28;20467;-74
2022/11/27 10:05:47;;;;;;;6.67;5.03;;;9.70;93.10;;;;;;5075157;28;20424;-73
2022/11/27 10:08:28;;;;;;;9.23;5.20;;;9.80;93.10;;;;;;5075389;28;20449;-74
2022/11/27 10:11:09;;;;;;;8.27;5.00;;;9.80;93.20;;;;;;5074875;28;20468;-74
2022/11/27 10:13:49;;;;;;;5.53;4.77;;;9.80;93.20;;;;;;5075398;28;20475;-73
2022/11/27 10:16:26;;;;;;;5.67;4.80;;;9.90;93.20;;;;;;5074673;28;20447;-73
2022/11/27 10:18:57;;;;;;;4.93;4.43;;;9.90;93.10;;;;;;5074830;28;20442;-74
2022/11/27 10:21:31;;;;;;;7.43;5.90;;;10.00;92.40;;;;;;5074219;28;20978;-74
2022/11/27 10:24:05;;;;;;;9.67;5.90;;;10.00;92.20;;;;;;5074599;28;20483;-73
2022/11/27 10:26:39;;;;;;;6.63;5.40;;;10.00;92.10;;;;;;5073955;28;20443;-73
2022/11/27 10:29:16;;;;;;;9.93;5.00;;;10.00;92.10;;;;;;5074559;28;20976;-74
2022/11/27 10:31:49;;;;;;;8.03;5.80;;;10.10;92.20;;;;;;5075580;28;20921;-74
2022/11/27 10:34:26;;;;;;;9.00;5.90;;;10.10;91.90;;;;;;5078633;28;20441;-74
2022/11/27 10:36:55;;;;;;;7.57;5.10;;;10.10;91.80;;;;;;5082026;28;20475;-74
2022/11/27 10:39:28;;;;;;;9.13;4.90;;;10.20;91.80;;;;;;5087762;28;20441;-72
2022/11/27 10:42:06;;;;;;;7.33;4.97;;;10.10;91.80;;;;;;5091728;28;20439;-73
2022/11/27 10:44:35;;;;;;;7.13;5.27;;;10.10;92.00;;;;;;5090519;28;20435;-72
2022/11/27 10:47:06;;;;;;;6.60;5.63;;;10.10;92.30;;;;;;5085536;28;20799;-72
2022/11/27 10:49:35;;;;;;;7.93;6.10;;;10.10;92.50;;;;;;5081019;28;20467;-73
2022/11/27 10:52:02;;;;;;;9.53;6.20;;;10.10;92.50;;;;;;5078952;28;20459;-73
2022/11/27 10:54:33;;;;;;;8.70;6.13;;;10.10;92.40;;;;;;5076651;28;20444;-72
2022/11/27 10:57:12;;;;;;;11.67;6.17;;;10.10;92.40;;;;;;5076352;28;20433;-72
2022/11/27 10:59:44;;;;;;;7.67;5.63;;;10.10;92.30;;;;;;5076882;28;20435;-74
2022/11/27 11:02:28;;;;;;;12.00;6.77;;;10.10;92.00;;;;;;5075896;28;20464;-73
2022/11/27 11:04:55;;;;;;;13.67;7.13;;;10.10;91.90;;;;;;5075524;28;20425;-74
2022/11/27 11:07:25;;;;;;;13.07;7.60;;;10.10;91.80;;;;;;5075314;28;20456;-73
2022/11/27 11:09:53;;;;;;;6.60;5.20;;;10.10;91.70;;;;;;5075410;28;20885;-74
2022/11/27 11:12:22;;;;;;;9.63;6.43;;;10.10;91.70;;;;;;5075768;28;20545;-74
2022/11/27 11:14:53;;;;;;;11.50;6.33;;;10.10;91.50;;;;;;5074351;28;20452;-73
2022/11/27 11:17:26;;;;;;;9.70;5.43;;;10.10;91.80;;;;;;5073462;28;20445;-75
2022/11/27 11:19:53;;;;;;;5.50;4.70;;;10.20;91.70;;;;;;5073740;28;20436;-73
2022/11/27 11:22:20;;;;;;;8.70;5.23;;;10.20;91.60;;;;;;5073397;28;20998;-74
2022/11/27 11:24:49;;;;;;;7.73;5.20;;;10.20;91.30;;;;;;5074142;28;20456;-74
2022/11/27 11:27:20;;;;;;;5.93;5.20;;;10.20;91.60;;;;;;5073596;28;20458;-75
2022/11/27 11:29:49;;;;;;;7.00;5.23;;;10.20;91.70;;;;;;5073580;28;20472;-74
2022/11/27 11:32:22;;;;;;;8.23;5.40;;;10.20;91.70;;;;;;5073423;28;20486;-74
2022/11/27 11:34:53;;;;;;;7.10;4.90;;;10.30;91.80;;;;;;5073661;28;20444;-74
2022/11/27 11:37:24;;;;;;;5.27;4.77;;;10.30;91.90;;;;;;5073033;28;20461;-74
2022/11/27 11:39:57;;;;;;;7.13;4.90;;;10.40;92.20;;;;;;5073210;28;20426;-74
2022/11/27 11:42:26;;;;;;;6.63;5.43;;;10.40;91.90;;;;;;5073534;28;20463;-74
2022/11/27 11:44:55;;;;;;;6.50;5.10;;;10.50;91.90;;;;;;5073541;28;20455;-74
2022/11/27 11:47:25;;;;;;;6.40;5.33;;;10.60;91.60;;;;;;5074438;28;20457;-71
2022/11/27 11:49:54;;;;;;;8.10;5.40;;;10.60;91.50;;;;;;5074761;28;20472;-71
2022/11/27 11:52:43;;;;;;;6.30;5.67;;;10.80;91.00;;;;;;5074083;28;20465;-71
2022/11/27 11:55:17;;;;;;;8.20;5.60;;;10.90;90.60;;;;;;5074265;28;20934;-71
2022/11/27 11:58:21;;;;;;;6.53;5.10;;;10.90;90.50;;;;;;5074695;28;20434;-71
2022/11/27 12:00:50;;;;;;;7.30;5.67;;;11.00;90.50;;;;;;5074993;28;20804;-71
2022/11/27 12:03:33;;;;;;;7.40;5.90;;;11.10;90.00;;;;;;5074274;28;20471;-73
2022/11/27 12:06:13;;;;;;;7.00;5.83;;;11.20;89.90;;;;;;5074706;28;20432;-73
2022/11/27 12:08:51;;;;;;;6.93;4.97;;;11.30;88.40;;;;;;5074465;28;20506;-74
2022/11/27 12:11:22;;;;;;;5.73;5.20;;;11.30;88.50;;;;;;5074182;28;20496;-75
2022/11/27 12:14:02;;;;;;;12.77;6.57;;;11.30;88.40;;;;;;5074538;28;20475;-75
2022/11/27 12:16:40;;;;;;;6.70;5.80;;;11.30;88.50;;;;;;5074859;28;20427;-74
2022/11/27 12:19:24;;;;;;;6.90;5.40;;;11.40;88.40;;;;;;5073842;28;20946;-74
2022/11/27 12:22:01;;;;;;;9.90;6.50;;;11.40;88.20;;;;;;5073940;28;20434;-74
2022/11/27 12:24:38;;;;;;;10.73;6.17;;;11.50;88.30;;;;;;5074269;28;20448;-75
2022/11/27 12:27:18;;;;;;;12.30;6.70;;;11.50;88.30;;;;;;5074234;28;20440;-75
2022/11/27 12:30:05;;;;;;;10.37;6.23;;;11.50;87.80;;;;;;5074298;28;20468;-74
2022/11/27 12:32:47;;;;;;;10.73;6.50;;;11.60;87.10;;;;;;5074250;28;20471;-75
2022/11/27 12:35:29;;;;;;;7.03;6.33;;;11.60;87.00;;;;;;5073712;28;20455;-75
2022/11/27 12:38:09;;;;;;;6.93;5.33;;;11.60;87.40;;;;;;5073666;28;20460;-75
2022/11/27 12:40:49;;;;;;;6.93;6.00;;;11.60;86.90;;;;;;5073808;28;20894;-74
2022/11/27 12:43:24;;;;;;;11.80;7.63;;;11.60;86.80;;;;;;5074932;28;20475;-71
2022/11/27 12:45:55;;;;;;;11.90;7.03;;;11.60;86.80;;;;;;5073960;28;20848;-72
2022/11/27 12:48:28;;;;;;;7.80;6.30;;;11.60;86.60;;;;;;5075901;28;20439;-73
2022/11/27 12:50:58;;;;;;;11.30;7.53;;;11.60;86.40;;;;;;5078473;28;20471;-73
2022/11/27 12:53:31;;;;;;;10.17;6.83;;;11.60;86.60;;;;;;5078834;28;20468;-75
2022/11/27 12:56:06;;;;;;;8.60;6.00;;;11.60;86.20;;;;;;5077970;28;20528;-74
2022/11/27 12:58:37;;;;;;;10.33;8.53;;;11.60;86.80;;;;;;5077953;28;20444;-75
2022/11/27 13:01:09;;;;;;;7.00;5.90;;;11.60;87.60;;;;;;5078724;28;20433;-73
2022/11/27 13:03:43;;;;;;;10.27;6.40;;;11.60;88.00;;;;;;5077294;28;20477;-73